Eastabuchie, Mississippi
Current Conditions -  °F | °C
As of 7:15 PM on Sunday 23 Nov 2014 (Local Time) from KPIB Reporting Station
Clear Clear  
Wind Chill: 64°   Ceiling: Unl
Heat Index: 64°   Visibility: 10mi
Dew Point: 55°   Wind: 8mph
Humidity: 73%   Direction: 190°S
Pressure: 29.66"   Gusts: NA
Location:  31.44°N, 89.28°W
Report Text: KPIB 240115Z AUTO 19007KT 10SM CLR 18/13 A2966 RMK AO1
Loading
Personal Weather Stations






























Interactive Weather Map New forecast layout! Learn more

10-Day Weather Forecast

Advertisements
Track Severe Weather on mobile